Terminal Aerodrome Forecast
Issued by NWS New Orleans/Baton Rouge, LA

Home | Current Version | Previous Version | Text Only | Print | Product List | Glossary On
Versions: 1 2 3 4 5 6 7 8 9 10 11 12
179
FTUS44 KLIX 250520
TAFBTR
TAF
KBTR 250520Z 2506/2606 06004KT P6SM SKC
     FM251400 07006KT P6SM FEW045 SCT110
     FM252000 10005KT P6SM VCTS SCT040CB BKN100
     FM260100 11004KT P6SM SCT110=

USA.gov is the U.S. government's official web portal to all federal, state and local government web resources and services.